sensor_id;sensor_type;location;lat;lon;timestamp;P1;durP1;ratioP1;P2;durP2;ratioP2
75851;SDS011;64500;52.632;20.656;2023-09-18T00:02:06;17.20;;;11.70;;
75851;SDS011;64500;52.632;20.656;2023-09-18T00:04:33;16.60;;;12.10;;
75851;SDS011;64500;52.632;20.656;2023-09-18T00:07:02;20.40;;;12.60;;
75851;SDS011;64500;52.632;20.656;2023-09-18T00:09:30;18.90;;;11.20;;
75851;SDS011;64500;52.632;20.656;2023-09-18T00:11:57;16.60;;;12.60;;
75851;SDS011;64500;52.632;20.656;2023-09-18T00:14:26;17.90;;;12.20;;
75851;SDS011;64500;52.632;20.656;2023-09-18T00:16:54;20.00;;;12.30;;
75851;SDS011;64500;52.632;20.656;2023-09-18T00:19:24;18.30;;;12.10;;
75851;SDS011;64500;52.632;20.656;2023-09-18T00:21:58;16.90;;;11.90;;
75851;SDS011;64500;52.632;20.656;2023-09-18T00:24:27;17.20;;;11.80;;
75851;SDS011;64500;52.632;20.656;2023-09-18T00:26:55;17.70;;;12.40;;
75851;SDS011;64500;52.632;20.656;2023-09-18T00:29:25;17.20;;;12.20;;
75851;SDS011;64500;52.632;20.656;2023-09-18T00:31:52;15.80;;;11.60;;
75851;SDS011;64500;52.632;20.656;2023-09-18T00:34:24;17.40;;;12.40;;
75851;SDS011;64500;52.632;20.656;2023-09-18T00:36:54;16.30;;;11.80;;
75851;SDS011;64500;52.632;20.656;2023-09-18T00:39:24;19.30;;;12.40;;
75851;SDS011;64500;52.632;20.656;2023-09-18T00:41:56;20.00;;;12.80;;
75851;SDS011;64500;52.632;20.656;2023-09-18T00:44:29;17.60;;;11.90;;
75851;SDS011;64500;52.632;20.656;2023-09-18T00:46:59;17.30;;;11.90;;
75851;SDS011;64500;52.632;20.656;2023-09-18T00:49:28;15.60;;;12.20;;
75851;SDS011;64500;52.632;20.656;2023-09-18T00:51:59;17.60;;;13.20;;
75851;SDS011;64500;52.632;20.656;2023-09-18T00:54:26;19.50;;;13.30;;
75851;SDS011;64500;52.632;20.656;2023-09-18T00:56:54;17.20;;;13.00;;
75851;SDS011;64500;52.632;20.656;2023-09-18T00:59:24;17.40;;;12.90;;
75851;SDS011;64500;52.632;20.656;2023-09-18T01:01:53;17.90;;;12.40;;
75851;SDS011;64500;52.632;20.656;2023-09-18T01:04:21;20.80;;;13.20;;
75851;SDS011;64500;52.632;20.656;2023-09-18T01:06:52;16.30;;;12.00;;
75851;SDS011;64500;52.632;20.656;2023-09-18T01:09:23;22.20;;;13.70;;
75851;SDS011;64500;52.632;20.656;2023-09-18T01:12:00;17.00;;;12.10;;
75851;SDS011;64500;52.632;20.656;2023-09-18T01:14:33;19.30;;;13.00;;
75851;SDS011;64500;52.632;20.656;2023-09-18T01:17:21;17.50;;;13.10;;
75851;SDS011;64500;52.632;20.656;2023-09-18T01:19:49;17.70;;;13.20;;
75851;SDS011;64500;52.632;20.656;2023-09-18T01:22:18;19.60;;;14.10;;
75851;SDS011;64500;52.632;20.656;2023-09-18T01:24:51;19.00;;;14.20;;
75851;SDS011;64500;52.632;20.656;2023-09-18T01:27:18;19.50;;;13.00;;
75851;SDS011;64500;52.632;20.656;2023-09-18T01:29:49;20.00;;;13.50;;
75851;SDS011;64500;52.632;20.656;2023-09-18T01:32:20;21.80;;;14.00;;
75851;SDS011;64500;52.632;20.656;2023-09-18T01:34:54;20.10;;;13.80;;
75851;SDS011;64500;52.632;20.656;2023-09-18T01:37:24;19.20;;;13.80;;
75851;SDS011;64500;52.632;20.656;2023-09-18T01:39:54;19.00;;;13.50;;
75851;SDS011;64500;52.632;20.656;2023-09-18T01:42:26;20.40;;;13.30;;
75851;SDS011;64500;52.632;20.656;2023-09-18T01:44:58;20.50;;;13.30;;
75851;SDS011;64500;52.632;20.656;2023-09-18T01:47:28;17.90;;;13.20;;
75851;SDS011;64500;52.632;20.656;2023-09-18T01:49:56;18.00;;;13.40;;
75851;SDS011;64500;52.632;20.656;2023-09-18T01:52:31;20.40;;;13.80;;
75851;SDS011;64500;52.632;20.656;2023-09-18T01:55:01;19.70;;;13.50;;
75851;SDS011;64500;52.632;20.656;2023-09-18T01:57:31;17.80;;;13.00;;
75851;SDS011;64500;52.632;20.656;2023-09-18T02:00:03;18.90;;;12.60;;
75851;SDS011;64500;52.632;20.656;2023-09-18T02:02:35;18.50;;;13.30;;
75851;SDS011;64500;52.632;20.656;2023-09-18T02:05:05;21.70;;;13.40;;
75851;SDS011;64500;52.632;20.656;2023-09-18T02:07:35;18.50;;;13.00;;
75851;SDS011;64500;52.632;20.656;2023-09-18T02:10:02;17.30;;;12.70;;
75851;SDS011;64500;52.632;20.656;2023-09-18T02:12:33;17.50;;;12.90;;
75851;SDS011;64500;52.632;20.656;2023-09-18T02:15:01;18.90;;;13.00;;
75851;SDS011;64500;52.632;20.656;2023-09-18T02:17:35;21.30;;;13.60;;
75851;SDS011;64500;52.632;20.656;2023-09-18T02:20:05;20.30;;;12.80;;
75851;SDS011;64500;52.632;20.656;2023-09-18T02:22:38;18.70;;;13.10;;
75851;SDS011;64500;52.632;20.656;2023-09-18T02:25:10;20.40;;;13.50;;
75851;SDS011;64500;52.632;20.656;2023-09-18T02:27:37;19.20;;;12.90;;
75851;SDS011;64500;52.632;20.656;2023-09-18T02:30:05;23.00;;;13.50;;
75851;SDS011;64500;52.632;20.656;2023-09-18T02:32:34;21.90;;;13.70;;
75851;SDS011;64500;52.632;20.656;2023-09-18T02:35:07;19.80;;;13.60;;
75851;SDS011;64500;52.632;20.656;2023-09-18T02:37:40;18.80;;;12.70;;
75851;SDS011;64500;52.632;20.656;2023-09-18T02:40:10;20.20;;;13.60;;
75851;SDS011;64500;52.632;20.656;2023-09-18T02:42:41;20.30;;;14.00;;
75851;SDS011;64500;52.632;20.656;2023-09-18T02:45:09;21.40;;;13.60;;
75851;SDS011;64500;52.632;20.656;2023-09-18T02:47:36;20.10;;;13.10;;
75851;SDS011;64500;52.632;20.656;2023-09-18T02:50:08;19.80;;;13.00;;
75851;SDS011;64500;52.632;20.656;2023-09-18T02:52:37;21.90;;;13.50;;
75851;SDS011;64500;52.632;20.656;2023-09-18T02:55:04;19.40;;;13.30;;
75851;SDS011;64500;52.632;20.656;2023-09-18T02:57:31;21.70;;;13.90;;
75851;SDS011;64500;52.632;20.656;2023-09-18T03:00:01;18.60;;;13.40;;
75851;SDS011;64500;52.632;20.656;2023-09-18T03:02:31;22.40;;;14.40;;
75851;SDS011;64500;52.632;20.656;2023-09-18T03:04:58;25.10;;;15.50;;
75851;SDS011;64500;52.632;20.656;2023-09-18T03:07:27;23.60;;;14.40;;
75851;SDS011;64500;52.632;20.656;2023-09-18T03:09:56;19.60;;;13.80;;
75851;SDS011;64500;52.632;20.656;2023-09-18T03:12:25;25.30;;;14.10;;
75851;SDS011;64500;52.632;20.656;2023-09-18T03:14:52;21.10;;;13.60;;
75851;SDS011;64500;52.632;20.656;2023-09-18T03:17:19;21.90;;;13.60;;
75851;SDS011;64500;52.632;20.656;2023-09-18T03:19:49;21.10;;;13.80;;
75851;SDS011;64500;52.632;20.656;2023-09-18T03:22:17;21.40;;;13.50;;
75851;SDS011;64500;52.632;20.656;2023-09-18T03:24:50;19.90;;;14.00;;
75851;SDS011;64500;52.632;20.656;2023-09-18T03:27:19;23.60;;;14.50;;
75851;SDS011;64500;52.632;20.656;2023-09-18T03:29:55;21.20;;;14.00;;
75851;SDS011;64500;52.632;20.656;2023-09-18T03:32:22;22.00;;;14.30;;
75851;SDS011;64500;52.632;20.656;2023-09-18T03:34:54;22.40;;;14.90;;
75851;SDS011;64500;52.632;20.656;2023-09-18T03:37:21;19.80;;;13.70;;
75851;SDS011;64500;52.632;20.656;2023-09-18T03:39:50;22.30;;;13.80;;
75851;SDS011;64500;52.632;20.656;2023-09-18T03:42:20;22.70;;;14.50;;
75851;SDS011;64500;52.632;20.656;2023-09-18T03:44:47;20.50;;;13.70;;
75851;SDS011;64500;52.632;20.656;2023-09-18T03:47:17;20.40;;;14.10;;
75851;SDS011;64500;52.632;20.656;2023-09-18T03:49:44;20.70;;;14.50;;
75851;SDS011;64500;52.632;20.656;2023-09-18T03:52:14;23.40;;;15.00;;
75851;SDS011;64500;52.632;20.656;2023-09-18T03:54:43;22.00;;;14.20;;
75851;SDS011;64500;52.632;20.656;2023-09-18T03:57:13;23.70;;;14.80;;
75851;SDS011;64500;52.632;20.656;2023-09-18T03:59:39;22.70;;;14.60;;
75851;SDS011;64500;52.632;20.656;2023-09-18T04:02:09;21.20;;;14.90;;
75851;SDS011;64500;52.632;20.656;2023-09-18T04:04:36;20.40;;;13.90;;
75851;SDS011;64500;52.632;20.656;2023-09-18T04:07:06;18.90;;;14.10;;
75851;SDS011;64500;52.632;20.656;2023-09-18T04:09:33;18.20;;;13.80;;
75851;SDS011;64500;52.632;20.656;2023-09-18T04:12:04;18.20;;;13.20;;
75851;SDS011;64500;52.632;20.656;2023-09-18T04:14:32;17.80;;;13.50;;
75851;SDS011;64500;52.632;20.656;2023-09-18T04:16:59;20.20;;;14.10;;
75851;SDS011;64500;52.632;20.656;2023-09-18T04:19:30;20.00;;;14.10;;
75851;SDS011;64500;52.632;20.656;2023-09-18T04:22:00;18.20;;;13.80;;
75851;SDS011;64500;52.632;20.656;2023-09-18T04:24:27;21.00;;;13.80;;
75851;SDS011;64500;52.632;20.656;2023-09-18T04:26:57;18.50;;;13.40;;
75851;SDS011;64500;52.632;20.656;2023-09-18T04:29:24;21.10;;;13.80;;
75851;SDS011;64500;52.632;20.656;2023-09-18T04:31:53;20.80;;;14.90;;
75851;SDS011;64500;52.632;20.656;2023-09-18T04:34:21;20.30;;;14.70;;
75851;SDS011;64500;52.632;20.656;2023-09-18T04:36:51;18.50;;;14.00;;
75851;SDS011;64500;52.632;20.656;2023-09-18T04:39:22;19.60;;;14.50;;
75851;SDS011;64500;52.632;20.656;2023-09-18T04:41:49;19.10;;;14.40;;
75851;SDS011;64500;52.632;20.656;2023-09-18T04:44:18;18.80;;;13.80;;
75851;SDS011;64500;52.632;20.656;2023-09-18T04:46:45;17.50;;;13.60;;
75851;SDS011;64500;52.632;20.656;2023-09-18T04:49:16;18.20;;;14.30;;
75851;SDS011;64500;52.632;20.656;2023-09-18T04:51:45;18.60;;;13.80;;
75851;SDS011;64500;52.632;20.656;2023-09-18T04:54:12;19.60;;;13.90;;
75851;SDS011;64500;52.632;20.656;2023-09-18T04:56:39;20.80;;;15.10;;
75851;SDS011;64500;52.632;20.656;2023-09-18T04:59:06;17.40;;;13.70;;
75851;SDS011;64500;52.632;20.656;2023-09-18T05:01:36;18.00;;;13.60;;
75851;SDS011;64500;52.632;20.656;2023-09-18T05:04:03;17.30;;;13.40;;
75851;SDS011;64500;52.632;20.656;2023-09-18T05:06:33;18.10;;;12.30;;
75851;SDS011;64500;52.632;20.656;2023-09-18T05:09:02;17.00;;;12.60;;
75851;SDS011;64500;52.632;20.656;2023-09-18T05:11:30;17.00;;;12.50;;
75851;SDS011;64500;52.632;20.656;2023-09-18T05:13:58;17.80;;;12.10;;
75851;SDS011;64500;52.632;20.656;2023-09-18T05:16:25;15.10;;;11.90;;
75851;SDS011;64500;52.632;20.656;2023-09-18T05:18:57;16.90;;;12.00;;
75851;SDS011;64500;52.632;20.656;2023-09-18T05:21:24;14.40;;;11.30;;
75851;SDS011;64500;52.632;20.656;2023-09-18T05:23:53;16.80;;;11.90;;
75851;SDS011;64500;52.632;20.656;2023-09-18T05:26:26;15.70;;;11.30;;
75851;SDS011;64500;52.632;20.656;2023-09-18T05:28:59;14.90;;;11.20;;
75851;SDS011;64500;52.632;20.656;2023-09-18T05:31:29;14.10;;;10.80;;
75851;SDS011;64500;52.632;20.656;2023-09-18T05:33:57;14.80;;;11.40;;
75851;SDS011;64500;52.632;20.656;2023-09-18T05:36:24;15.30;;;11.00;;
75851;SDS011;64500;52.632;20.656;2023-09-18T05:38:51;15.10;;;10.60;;
75851;SDS011;64500;52.632;20.656;2023-09-18T05:41:21;13.70;;;10.60;;
75851;SDS011;64500;52.632;20.656;2023-09-18T05:43:55;16.00;;;10.80;;
75851;SDS011;64500;52.632;20.656;2023-09-18T05:46:25;14.90;;;10.40;;
75851;SDS011;64500;52.632;20.656;2023-09-18T05:48:52;14.80;;;10.70;;
75851;SDS011;64500;52.632;20.656;2023-09-18T05:51:23;14.00;;;9.80;;
75851;SDS011;64500;52.632;20.656;2023-09-18T05:53:50;15.60;;;10.60;;
75851;SDS011;64500;52.632;20.656;2023-09-18T05:56:20;14.80;;;10.50;;
75851;SDS011;64500;52.632;20.656;2023-09-18T05:58:50;15.00;;;10.30;;
75851;SDS011;64500;52.632;20.656;2023-09-18T06:01:21;14.70;;;10.10;;
75851;SDS011;64500;52.632;20.656;2023-09-18T06:03:49;16.40;;;9.60;;
75851;SDS011;64500;52.632;20.656;2023-09-18T06:06:18;14.50;;;10.20;;
75851;SDS011;64500;52.632;20.656;2023-09-18T06:08:46;16.20;;;10.00;;
75851;SDS011;64500;52.632;20.656;2023-09-18T06:11:18;13.80;;;10.00;;
75851;SDS011;64500;52.632;20.656;2023-09-18T06:13:48;13.80;;;10.10;;
75851;SDS011;64500;52.632;20.656;2023-09-18T06:16:17;14.40;;;10.30;;
75851;SDS011;64500;52.632;20.656;2023-09-18T06:18:45;15.40;;;10.60;;
75851;SDS011;64500;52.632;20.656;2023-09-18T06:21:12;13.70;;;10.10;;
75851;SDS011;64500;52.632;20.656;2023-09-18T06:23:39;16.40;;;10.60;;
75851;SDS011;64500;52.632;20.656;2023-09-18T06:26:09;16.80;;;10.60;;
75851;SDS011;64500;52.632;20.656;2023-09-18T06:28:43;15.70;;;9.90;;
75851;SDS011;64500;52.632;20.656;2023-09-18T06:31:10;13.30;;;9.90;;
75851;SDS011;64500;52.632;20.656;2023-09-18T06:33:41;13.20;;;10.00;;
75851;SDS011;64500;52.632;20.656;2023-09-18T06:36:10;14.00;;;9.90;;
75851;SDS011;64500;52.632;20.656;2023-09-18T06:38:40;15.70;;;10.00;;
75851;SDS011;64500;52.632;20.656;2023-09-18T06:41:07;14.80;;;10.70;;
75851;SDS011;64500;52.632;20.656;2023-09-18T06:43:36;14.00;;;10.10;;
75851;SDS011;64500;52.632;20.656;2023-09-18T06:46:07;13.70;;;9.30;;
75851;SDS011;64500;52.632;20.656;2023-09-18T06:48:36;14.50;;;9.80;;
75851;SDS011;64500;52.632;20.656;2023-09-18T06:51:10;13.60;;;9.70;;
75851;SDS011;64500;52.632;20.656;2023-09-18T06:53:40;16.60;;;10.00;;
75851;SDS011;64500;52.632;20.656;2023-09-18T06:56:07;13.20;;;8.70;;
75851;SDS011;64500;52.632;20.656;2023-09-18T06:58:36;13.40;;;8.90;;
75851;SDS011;64500;52.632;20.656;2023-09-18T07:01:05;12.90;;;8.70;;
75851;SDS011;64500;52.632;20.656;2023-09-18T07:03:33;12.50;;;8.70;;
75851;SDS011;64500;52.632;20.656;2023-09-18T07:06:06;13.80;;;9.10;;
75851;SDS011;64500;52.632;20.656;2023-09-18T07:08:36;13.50;;;9.50;;
75851;SDS011;64500;52.632;20.656;2023-09-18T07:11:09;11.90;;;8.40;;
75851;SDS011;64500;52.632;20.656;2023-09-18T07:13:38;12.30;;;8.90;;
75851;SDS011;64500;52.632;20.656;2023-09-18T07:16:10;14.10;;;8.20;;
75851;SDS011;64500;52.632;20.656;2023-09-18T07:18:38;17.60;;;8.00;;
75851;SDS011;64500;52.632;20.656;2023-09-18T07:21:09;12.60;;;7.90;;
75851;SDS011;64500;52.632;20.656;2023-09-18T07:23:36;11.70;;;7.70;;
75851;SDS011;64500;52.632;20.656;2023-09-18T07:26:03;32.80;;;10.20;;
75851;SDS011;64500;52.632;20.656;2023-09-18T07:28:31;15.30;;;8.10;;
75851;SDS011;64500;52.632;20.656;2023-09-18T07:31:05;10.80;;;7.10;;
75851;SDS011;64500;52.632;20.656;2023-09-18T07:33:36;12.50;;;7.00;;
75851;SDS011;64500;52.632;20.656;2023-09-18T07:36:06;11.70;;;6.70;;
75851;SDS011;64500;52.632;20.656;2023-09-18T07:38:34;12.00;;;7.20;;
75851;SDS011;64500;52.632;20.656;2023-09-18T07:41:01;12.60;;;6.90;;
75851;SDS011;64500;52.632;20.656;2023-09-18T07:43:28;17.40;;;7.60;;
75851;SDS011;64500;52.632;20.656;2023-09-18T07:45:58;11.90;;;7.00;;
75851;SDS011;64500;52.632;20.656;2023-09-18T07:48:26;9.70;;;6.40;;
75851;SDS011;64500;52.632;20.656;2023-09-18T07:50:54;11.70;;;6.60;;
75851;SDS011;64500;52.632;20.656;2023-09-18T07:53:22;10.90;;;6.90;;
75851;SDS011;64500;52.632;20.656;2023-09-18T07:55:55;10.50;;;6.60;;
75851;SDS011;64500;52.632;20.656;2023-09-18T07:58:29;10.60;;;6.50;;
75851;SDS011;64500;52.632;20.656;2023-09-18T08:00:57;8.90;;;6.20;;
75851;SDS011;64500;52.632;20.656;2023-09-18T08:03:27;10.90;;;5.80;;
75851;SDS011;64500;52.632;20.656;2023-09-18T08:05:58;10.80;;;6.00;;
75851;SDS011;64500;52.632;20.656;2023-09-18T08:08:27;9.10;;;5.50;;
75851;SDS011;64500;52.632;20.656;2023-09-18T08:11:00;13.30;;;5.90;;
75851;SDS011;64500;52.632;20.656;2023-09-18T08:13:36;10.20;;;5.90;;
75851;SDS011;64500;52.632;20.656;2023-09-18T08:16:07;11.30;;;5.90;;
75851;SDS011;64500;52.632;20.656;2023-09-18T08:18:37;8.50;;;5.40;;
75851;SDS011;64500;52.632;20.656;2023-09-18T08:21:07;9.60;;;5.30;;
75851;SDS011;64500;52.632;20.656;2023-09-18T08:23:36;9.90;;;5.30;;
75851;SDS011;64500;52.632;20.656;2023-09-18T08:26:03;9.70;;;4.70;;
75851;SDS011;64500;52.632;20.656;2023-09-18T08:28:30;8.00;;;4.80;;
75851;SDS011;64500;52.632;20.656;2023-09-18T08:30:57;8.70;;;5.00;;
75851;SDS011;64500;52.632;20.656;2023-09-18T08:33:27;8.40;;;4.50;;
75851;SDS011;64500;52.632;20.656;2023-09-18T08:35:55;7.50;;;4.50;;
75851;SDS011;64500;52.632;20.656;2023-09-18T08:38:24;12.90;;;4.60;;
75851;SDS011;64500;52.632;20.656;2023-09-18T08:40:53;7.40;;;4.60;;
75851;SDS011;64500;52.632;20.656;2023-09-18T08:43:23;7.80;;;4.60;;
75851;SDS011;64500;52.632;20.656;2023-09-18T08:45:55;8.60;;;4.50;;
75851;SDS011;64500;52.632;20.656;2023-09-18T08:48:28;8.30;;;4.50;;
75851;SDS011;64500;52.632;20.656;2023-09-18T08:51:03;9.30;;;4.70;;
75851;SDS011;64500;52.632;20.656;2023-09-18T08:53:32;8.30;;;4.80;;
75851;SDS011;64500;52.632;20.656;2023-09-18T08:56:06;8.10;;;4.20;;
75851;SDS011;64500;52.632;20.656;2023-09-18T08:58:39;9.90;;;4.50;;
75851;SDS011;64500;52.632;20.656;2023-09-18T09:01:12;10.70;;;5.20;;
75851;SDS011;64500;52.632;20.656;2023-09-18T09:03:40;8.20;;;4.20;;
75851;SDS011;64500;52.632;20.656;2023-09-18T09:06:14;7.90;;;4.10;;
75851;SDS011;64500;52.632;20.656;2023-09-18T09:08:46;7.10;;;4.20;;
75851;SDS011;64500;52.632;20.656;2023-09-18T09:11:16;7.90;;;4.40;;
75851;SDS011;64500;52.632;20.656;2023-09-18T09:13:43;8.10;;;4.70;;
75851;SDS011;64500;52.632;20.656;2023-09-18T09:16:18;7.70;;;4.50;;
75851;SDS011;64500;52.632;20.656;2023-09-18T09:21:16;8.70;;;4.20;;
75851;SDS011;64500;52.632;20.656;2023-09-18T09:23:47;6.90;;;4.10;;
75851;SDS011;64500;52.632;20.656;2023-09-18T09:26:19;7.00;;;4.10;;
75851;SDS011;64500;52.632;20.656;2023-09-18T09:28:49;7.60;;;4.70;;
75851;SDS011;64500;52.632;20.656;2023-09-18T09:31:23;7.10;;;4.20;;
75851;SDS011;64500;52.632;20.656;2023-09-18T09:33:51;8.70;;;4.50;;
75851;SDS011;64500;52.632;20.656;2023-09-18T09:36:30;9.90;;;4.50;;
75851;SDS011;64500;52.632;20.656;2023-09-18T09:38:57;8.40;;;4.60;;
75851;SDS011;64500;52.632;20.656;2023-09-18T09:41:27;9.20;;;4.30;;
75851;SDS011;64500;52.632;20.656;2023-09-18T09:43:57;12.80;;;4.20;;
75851;SDS011;64500;52.632;20.656;2023-09-18T09:46:25;8.00;;;3.90;;
75851;SDS011;64500;52.632;20.656;2023-09-18T09:48:58;6.60;;;3.60;;
75851;SDS011;64500;52.632;20.656;2023-09-18T09:51:27;7.10;;;3.90;;
75851;SDS011;64500;52.632;20.656;2023-09-18T09:53:56;6.80;;;3.80;;
75851;SDS011;64500;52.632;20.656;2023-09-18T09:59:17;11.40;;;4.00;;
75851;SDS011;64500;52.632;20.656;2023-09-18T10:01:48;8.20;;;3.50;;
75851;SDS011;64500;52.632;20.656;2023-09-18T10:04:20;7.50;;;3.40;;
75851;SDS011;64500;52.632;20.656;2023-09-18T10:06:51;6.90;;;3.10;;
75851;SDS011;64500;52.632;20.656;2023-09-18T10:09:23;7.70;;;3.90;;
75851;SDS011;64500;52.632;20.656;2023-09-18T10:11:56;6.80;;;3.40;;
75851;SDS011;64500;52.632;20.656;2023-09-18T10:14:30;6.70;;;3.00;;
75851;SDS011;64500;52.632;20.656;2023-09-18T10:17:04;6.60;;;3.20;;
75851;SDS011;64500;52.632;20.656;2023-09-18T10:22:44;9.00;;;3.40;;
75851;SDS011;64500;52.632;20.656;2023-09-18T10:25:20;5.90;;;3.00;;
75851;SDS011;64500;52.632;20.656;2023-09-18T10:27:52;8.50;;;3.70;;
75851;SDS011;64500;52.632;20.656;2023-09-18T10:30:33;6.90;;;3.70;;
75851;SDS011;64500;52.632;20.656;2023-09-18T10:33:03;6.20;;;3.30;;
75851;SDS011;64500;52.632;20.656;2023-09-18T10:38:06;6.50;;;3.60;;
75851;SDS011;64500;52.632;20.656;2023-09-18T10:40:36;7.40;;;3.40;;
75851;SDS011;64500;52.632;20.656;2023-09-18T10:43:07;9.40;;;3.80;;
75851;SDS011;64500;52.632;20.656;2023-09-18T10:45:37;8.10;;;3.90;;
75851;SDS011;64500;52.632;20.656;2023-09-18T10:48:06;7.80;;;3.50;;
75851;SDS011;64500;52.632;20.656;2023-09-18T10:50:37;7.20;;;3.60;;
75851;SDS011;64500;52.632;20.656;2023-09-18T10:53:06;8.60;;;3.70;;
75851;SDS011;64500;52.632;20.656;2023-09-18T10:55:38;7.30;;;3.50;;
75851;SDS011;64500;52.632;20.656;2023-09-18T10:58:05;7.00;;;3.30;;
75851;SDS011;64500;52.632;20.656;2023-09-18T11:00:37;6.80;;;3.30;;
75851;SDS011;64500;52.632;20.656;2023-09-18T11:03:18;6.90;;;3.40;;
75851;SDS011;64500;52.632;20.656;2023-09-18T11:05:46;8.50;;;3.50;;
75851;SDS011;64500;52.632;20.656;2023-09-18T11:08:30;17.50;;;3.90;;
75851;SDS011;64500;52.632;20.656;2023-09-18T11:11:05;11.30;;;4.10;;
75851;SDS011;64500;52.632;20.656;2023-09-18T11:13:43;7.60;;;3.80;;
75851;SDS011;64500;52.632;20.656;2023-09-18T11:16:19;8.50;;;3.60;;
75851;SDS011;64500;52.632;20.656;2023-09-18T11:21:35;7.40;;;3.60;;
75851;SDS011;64500;52.632;20.656;2023-09-18T11:24:03;7.70;;;3.20;;
75851;SDS011;64500;52.632;20.656;2023-09-18T11:26:33;6.90;;;3.50;;
75851;SDS011;64500;52.632;20.656;2023-09-18T11:29:05;7.10;;;3.40;;
75851;SDS011;64500;52.632;20.656;2023-09-18T11:34:23;6.80;;;3.40;;
75851;SDS011;64500;52.632;20.656;2023-09-18T11:37:00;7.90;;;3.50;;
75851;SDS011;64500;52.632;20.656;2023-09-18T11:39:39;28.90;;;4.80;;
75851;SDS011;64500;52.632;20.656;2023-09-18T11:42:14;11.20;;;3.60;;
75851;SDS011;64500;52.632;20.656;2023-09-18T11:44:44;16.00;;;3.60;;
75851;SDS011;64500;52.632;20.656;2023-09-18T11:47:17;7.00;;;3.20;;
75851;SDS011;64500;52.632;20.656;2023-09-18T11:49:53;10.30;;;3.80;;
75851;SDS011;64500;52.632;20.656;2023-09-18T11:52:26;23.80;;;4.00;;
75851;SDS011;64500;52.632;20.656;2023-09-18T11:54:59;9.00;;;3.30;;
75851;SDS011;64500;52.632;20.656;2023-09-18T11:57:30;6.10;;;2.90;;
75851;SDS011;64500;52.632;20.656;2023-09-18T12:00:05;7.10;;;3.50;;
75851;SDS011;64500;52.632;20.656;2023-09-18T12:02:51;6.50;;;3.40;;
75851;SDS011;64500;52.632;20.656;2023-09-18T12:05:22;12.00;;;3.80;;
75851;SDS011;64500;52.632;20.656;2023-09-18T12:07:55;13.50;;;3.80;;
75851;SDS011;64500;52.632;20.656;2023-09-18T12:10:25;12.60;;;3.50;;
75851;SDS011;64500;52.632;20.656;2023-09-18T12:12:55;6.10;;;3.50;;
75851;SDS011;64500;52.632;20.656;2023-09-18T12:15:25;8.30;;;3.40;;
75851;SDS011;64500;52.632;20.656;2023-09-18T12:17:57;10.20;;;3.70;;
75851;SDS011;64500;52.632;20.656;2023-09-18T12:20:32;7.50;;;3.80;;
75851;SDS011;64500;52.632;20.656;2023-09-18T12:23:01;6.70;;;3.60;;
75851;SDS011;64500;52.632;20.656;2023-09-18T12:25:29;7.40;;;3.80;;
75851;SDS011;64500;52.632;20.656;2023-09-18T12:27:59;7.60;;;3.50;;
75851;SDS011;64500;52.632;20.656;2023-09-18T12:30:29;7.70;;;4.00;;
75851;SDS011;64500;52.632;20.656;2023-09-18T12:33:00;6.90;;;4.00;;
75851;SDS011;64500;52.632;20.656;2023-09-18T12:35:28;9.90;;;4.20;;
75851;SDS011;64500;52.632;20.656;2023-09-18T12:37:59;9.80;;;4.30;;
75851;SDS011;64500;52.632;20.656;2023-09-18T12:40:28;7.70;;;3.90;;
75851;SDS011;64500;52.632;20.656;2023-09-18T12:45:27;7.80;;;3.80;;
75851;SDS011;64500;52.632;20.656;2023-09-18T12:47:58;7.10;;;4.30;;
75851;SDS011;64500;52.632;20.656;2023-09-18T12:50:30;7.70;;;3.70;;
75851;SDS011;64500;52.632;20.656;2023-09-18T12:53:07;7.40;;;4.20;;
75851;SDS011;64500;52.632;20.656;2023-09-18T12:55:39;8.20;;;4.30;;
75851;SDS011;64500;52.632;20.656;2023-09-18T12:58:09;9.20;;;4.30;;
75851;SDS011;64500;52.632;20.656;2023-09-18T13:00:40;8.80;;;4.10;;
75851;SDS011;64500;52.632;20.656;2023-09-18T13:03:17;7.60;;;4.00;;
75851;SDS011;64500;52.632;20.656;2023-09-18T13:05:45;9.80;;;4.50;;
75851;SDS011;64500;52.632;20.656;2023-09-18T13:08:15;9.70;;;4.80;;
75851;SDS011;64500;52.632;20.656;2023-09-18T13:10:49;9.80;;;4.40;;
75851;SDS011;64500;52.632;20.656;2023-09-18T13:13:21;7.70;;;4.40;;
75851;SDS011;64500;52.632;20.656;2023-09-18T13:15:49;7.10;;;4.50;;
75851;SDS011;64500;52.632;20.656;2023-09-18T13:18:19;8.70;;;4.40;;
75851;SDS011;64500;52.632;20.656;2023-09-18T13:20:46;8.50;;;4.60;;
75851;SDS011;64500;52.632;20.656;2023-09-18T13:23:13;9.60;;;4.90;;
75851;SDS011;64500;52.632;20.656;2023-09-18T13:25:43;7.90;;;4.60;;
75851;SDS011;64500;52.632;20.656;2023-09-18T13:30:42;10.30;;;4.20;;
75851;SDS011;64500;52.632;20.656;2023-09-18T13:33:10;9.00;;;4.80;;
75851;SDS011;64500;52.632;20.656;2023-09-18T13:35:43;8.40;;;5.10;;
75851;SDS011;64500;52.632;20.656;2023-09-18T13:38:12;9.30;;;4.80;;
75851;SDS011;64500;52.632;20.656;2023-09-18T13:40:42;8.40;;;5.00;;
75851;SDS011;64500;52.632;20.656;2023-09-18T13:43:12;9.10;;;5.40;;
75851;SDS011;64500;52.632;20.656;2023-09-18T13:45:41;8.40;;;5.00;;
75851;SDS011;64500;52.632;20.656;2023-09-18T13:48:12;8.30;;;4.60;;
75851;SDS011;64500;52.632;20.656;2023-09-18T13:50:42;8.90;;;5.40;;
75851;SDS011;64500;52.632;20.656;2023-09-18T13:53:11;9.30;;;5.70;;
75851;SDS011;64500;52.632;20.656;2023-09-18T13:55:39;9.80;;;5.50;;
75851;SDS011;64500;52.632;20.656;2023-09-18T13:58:11;11.20;;;6.00;;
75851;SDS011;64500;52.632;20.656;2023-09-18T14:00:40;9.50;;;5.60;;
75851;SDS011;64500;52.632;20.656;2023-09-18T14:03:10;8.10;;;5.90;;
75851;SDS011;64500;52.632;20.656;2023-09-18T14:05:38;13.80;;;5.20;;
75851;SDS011;64500;52.632;20.656;2023-09-18T14:08:06;9.80;;;5.90;;
75851;SDS011;64500;52.632;20.656;2023-09-18T14:10:35;8.90;;;6.70;;
75851;SDS011;64500;52.632;20.656;2023-09-18T14:13:02;11.30;;;6.60;;
75851;SDS011;64500;52.632;20.656;2023-09-18T14:15:30;8.10;;;6.00;;
75851;SDS011;64500;52.632;20.656;2023-09-18T14:17:59;8.90;;;5.80;;
75851;SDS011;64500;52.632;20.656;2023-09-18T14:20:26;10.10;;;6.80;;
75851;SDS011;64500;52.632;20.656;2023-09-18T14:22:53;9.30;;;6.30;;
75851;SDS011;64500;52.632;20.656;2023-09-18T14:25:24;10.20;;;6.60;;
75851;SDS011;64500;52.632;20.656;2023-09-18T14:27:54;9.50;;;6.00;;
75851;SDS011;64500;52.632;20.656;2023-09-18T14:30:21;10.20;;;7.20;;
75851;SDS011;64500;52.632;20.656;2023-09-18T14:32:55;8.80;;;6.50;;
75851;SDS011;64500;52.632;20.656;2023-09-18T14:35:22;9.10;;;6.60;;
75851;SDS011;64500;52.632;20.656;2023-09-18T14:37:51;10.70;;;7.10;;
75851;SDS011;64500;52.632;20.656;2023-09-18T14:40:19;8.80;;;6.70;;
75851;SDS011;64500;52.632;20.656;2023-09-18T14:42:50;9.70;;;7.20;;
75851;SDS011;64500;52.632;20.656;2023-09-18T14:45:18;10.30;;;6.80;;
75851;SDS011;64500;52.632;20.656;2023-09-18T14:47:45;13.20;;;7.10;;
75851;SDS011;64500;52.632;20.656;2023-09-18T14:50:12;13.80;;;8.20;;
75851;SDS011;64500;52.632;20.656;2023-09-18T14:52:43;10.80;;;7.30;;
75851;SDS011;64500;52.632;20.656;2023-09-18T14:55:10;11.90;;;7.40;;
75851;SDS011;64500;52.632;20.656;2023-09-18T14:57:37;11.20;;;7.20;;
75851;SDS011;64500;52.632;20.656;2023-09-18T15:00:08;10.60;;;7.30;;